sensor_id;sensor_type;location;lat;lon;timestamp;pressure;altitude;pressure_sealevel;temperature;humidity
9335;BME280;4706;41.844;26.082;2023-03-16T00:01:18;99676.59;;;13.35;71.19
9335;BME280;4706;41.844;26.082;2023-03-16T00:03:44;99678.28;;;13.27;71.87
9335;BME280;4706;41.844;26.082;2023-03-16T00:06:09;99684.00;;;13.22;72.01
9335;BME280;4706;41.844;26.082;2023-03-16T00:08:35;99681.53;;;13.08;73.32
9335;BME280;4706;41.844;26.082;2023-03-16T00:11:01;99692.94;;;13.07;73.64
9335;BME280;4706;41.844;26.082;2023-03-16T00:13:27;99688.81;;;13.13;73.91
9335;BME280;4706;41.844;26.082;2023-03-16T00:15:58;99693.72;;;13.07;73.90
9335;BME280;4706;41.844;26.082;2023-03-16T00:18:26;99696.84;;;13.06;74.08
9335;BME280;4706;41.844;26.082;2023-03-16T00:20:54;99688.22;;;13.07;73.49
9335;BME280;4706;41.844;26.082;2023-03-16T00:23:21;99696.84;;;13.06;73.89
9335;BME280;4706;41.844;26.082;2023-03-16T00:25:57;99681.09;;;13.06;73.47
9335;BME280;4706;41.844;26.082;2023-03-16T00:28:23;99693.19;;;12.93;74.50
9335;BME280;4706;41.844;26.082;2023-03-16T00:30:49;99686.06;;;12.92;74.43
9335;BME280;4706;41.844;26.082;2023-03-16T00:33:15;99686.16;;;12.83;75.09
9335;BME280;4706;41.844;26.082;2023-03-16T00:35:45;99675.03;;;12.71;75.33
9335;BME280;4706;41.844;26.082;2023-03-16T00:38:18;99673.28;;;12.67;75.85
9335;BME280;4706;41.844;26.082;2023-03-16T00:40:44;99688.63;;;12.55;75.77
9335;BME280;4706;41.844;26.082;2023-03-16T00:43:10;99680.63;;;12.42;75.62
9335;BME280;4706;41.844;26.082;2023-03-16T00:45:35;99682.03;;;12.48;76.21
9335;BME280;4706;41.844;26.082;2023-03-16T00:48:01;99675.25;;;12.45;76.76
9335;BME280;4706;41.844;26.082;2023-03-16T00:50:27;99674.56;;;12.48;75.28
9335;BME280;4706;41.844;26.082;2023-03-16T00:52:52;99682.44;;;12.58;74.67
9335;BME280;4706;41.844;26.082;2023-03-16T00:55:21;99679.00;;;12.40;74.67
9335;BME280;4706;41.844;26.082;2023-03-16T00:57:46;99677.75;;;12.38;75.41
9335;BME280;4706;41.844;26.082;2023-03-16T01:00:13;99680.81;;;12.36;75.74
9335;BME280;4706;41.844;26.082;2023-03-16T01:02:42;99679.22;;;12.35;76.59
9335;BME280;4706;41.844;26.082;2023-03-16T01:05:10;99685.59;;;12.27;76.91
9335;BME280;4706;41.844;26.082;2023-03-16T01:07:39;99679.78;;;12.20;77.59
9335;BME280;4706;41.844;26.082;2023-03-16T01:10:07;99680.59;;;12.21;77.85
9335;BME280;4706;41.844;26.082;2023-03-16T01:12:33;99667.16;;;12.19;78.09
9335;BME280;4706;41.844;26.082;2023-03-16T01:14:59;99681.91;;;12.14;77.95
9335;BME280;4706;41.844;26.082;2023-03-16T01:17:25;99674.19;;;12.08;77.67
9335;BME280;4706;41.844;26.082;2023-03-16T01:19:51;99677.25;;;12.15;77.44
9335;BME280;4706;41.844;26.082;2023-03-16T01:22:16;99679.13;;;12.23;77.10
9335;BME280;4706;41.844;26.082;2023-03-16T01:24:42;99671.44;;;12.08;78.37
9335;BME280;4706;41.844;26.082;2023-03-16T01:27:09;99674.47;;;12.15;79.12
9335;BME280;4706;41.844;26.082;2023-03-16T01:29:36;99681.25;;;12.18;79.38
9335;BME280;4706;41.844;26.082;2023-03-16T01:32:02;99683.16;;;12.26;79.24
9335;BME280;4706;41.844;26.082;2023-03-16T01:34:28;99675.56;;;12.23;78.98
9335;BME280;4706;41.844;26.082;2023-03-16T01:36:54;99674.63;;;12.19;78.89
9335;BME280;4706;41.844;26.082;2023-03-16T01:39:19;99685.09;;;12.25;78.28
9335;BME280;4706;41.844;26.082;2023-03-16T01:41:45;99685.25;;;12.29;79.10
9335;BME280;4706;41.844;26.082;2023-03-16T01:44:17;99680.06;;;12.27;79.35
9335;BME280;4706;41.844;26.082;2023-03-16T01:46:44;99675.44;;;12.19;80.53
9335;BME280;4706;41.844;26.082;2023-03-16T01:49:18;99674.22;;;11.99;81.20
9335;BME280;4706;41.844;26.082;2023-03-16T01:52:02;99673.66;;;12.14;80.61
9335;BME280;4706;41.844;26.082;2023-03-16T01:59:32;99670.72;;;12.20;81.06
9335;BME280;4706;41.844;26.082;2023-03-16T02:02:01;99682.63;;;12.32;80.30
9335;BME280;4706;41.844;26.082;2023-03-16T02:06:58;99677.59;;;12.34;80.69
9335;BME280;4706;41.844;26.082;2023-03-16T02:09:25;99683.72;;;12.40;80.14
9335;BME280;4706;41.844;26.082;2023-03-16T02:11:53;99682.56;;;12.41;79.71
9335;BME280;4706;41.844;26.082;2023-03-16T02:14:19;99691.47;;;12.47;79.35
9335;BME280;4706;41.844;26.082;2023-03-16T02:16:45;99682.97;;;12.31;79.36
9335;BME280;4706;41.844;26.082;2023-03-16T02:19:19;99692.56;;;12.25;80.18
9335;BME280;4706;41.844;26.082;2023-03-16T02:22:13;99697.13;;;12.21;80.04
9335;BME280;4706;41.844;26.082;2023-03-16T02:24:39;99694.53;;;12.24;79.44
9335;BME280;4706;41.844;26.082;2023-03-16T02:27:11;99695.66;;;12.23;79.04
9335;BME280;4706;41.844;26.082;2023-03-16T02:29:52;99704.16;;;12.09;79.49
9335;BME280;4706;41.844;26.082;2023-03-16T02:32:22;99709.63;;;12.18;79.19
9335;BME280;4706;41.844;26.082;2023-03-16T02:34:48;99717.81;;;12.06;78.75
9335;BME280;4706;41.844;26.082;2023-03-16T02:37:14;99717.34;;;12.04;79.04
9335;BME280;4706;41.844;26.082;2023-03-16T02:39:40;99722.16;;;12.07;79.65
9335;BME280;4706;41.844;26.082;2023-03-16T02:42:14;99720.50;;;12.14;78.93
9335;BME280;4706;41.844;26.082;2023-03-16T02:44:45;99730.81;;;11.97;79.47
9335;BME280;4706;41.844;26.082;2023-03-16T02:47:29;99741.53;;;11.81;79.89
9335;BME280;4706;41.844;26.082;2023-03-16T02:49:56;99728.97;;;11.54;81.85
9335;BME280;4706;41.844;26.082;2023-03-16T02:52:22;99725.09;;;11.46;83.47
9335;BME280;4706;41.844;26.082;2023-03-16T02:54:47;99734.97;;;11.56;83.38
9335;BME280;4706;41.844;26.082;2023-03-16T02:57:13;99724.56;;;11.61;83.08
9335;BME280;4706;41.844;26.082;2023-03-16T02:59:39;99725.03;;;11.72;82.52
9335;BME280;4706;41.844;26.082;2023-03-16T03:02:04;99733.44;;;11.84;82.81
9335;BME280;4706;41.844;26.082;2023-03-16T03:04:30;99723.88;;;11.73;83.12
9335;BME280;4706;41.844;26.082;2023-03-16T03:06:57;99732.63;;;11.84;83.75
9335;BME280;4706;41.844;26.082;2023-03-16T03:09:28;99736.84;;;11.90;83.56
9335;BME280;4706;41.844;26.082;2023-03-16T03:11:53;99732.31;;;11.85;83.47
9335;BME280;4706;41.844;26.082;2023-03-16T03:14:19;99731.00;;;11.91;83.10
9335;BME280;4706;41.844;26.082;2023-03-16T03:16:44;99730.03;;;11.96;81.62
9335;BME280;4706;41.844;26.082;2023-03-16T03:19:11;99732.09;;;11.99;81.13
9335;BME280;4706;41.844;26.082;2023-03-16T03:21:38;99743.50;;;11.89;81.53
9335;BME280;4706;41.844;26.082;2023-03-16T03:24:04;99744.91;;;11.95;80.89
9335;BME280;4706;41.844;26.082;2023-03-16T03:26:30;99750.78;;;11.94;81.38
9335;BME280;4706;41.844;26.082;2023-03-16T03:28:55;99747.53;;;11.91;82.16
9335;BME280;4706;41.844;26.082;2023-03-16T03:31:21;99751.91;;;11.93;81.57
9335;BME280;4706;41.844;26.082;2023-03-16T03:33:47;99755.19;;;11.86;82.56
9335;BME280;4706;41.844;26.082;2023-03-16T03:36:13;99763.75;;;11.84;83.46
9335;BME280;4706;41.844;26.082;2023-03-16T03:38:38;99761.31;;;11.83;83.34
9335;BME280;4706;41.844;26.082;2023-03-16T03:41:05;99760.50;;;11.91;83.20
9335;BME280;4706;41.844;26.082;2023-03-16T03:43:34;99770.38;;;11.92;82.89
9335;BME280;4706;41.844;26.082;2023-03-16T03:46:01;99776.72;;;11.84;82.92
9335;BME280;4706;41.844;26.082;2023-03-16T03:48:27;99768.94;;;11.77;83.84
9335;BME280;4706;41.844;26.082;2023-03-16T03:50:53;99750.66;;;11.64;84.49
9335;BME280;4706;41.844;26.082;2023-03-16T03:53:19;99770.44;;;11.66;84.85
9335;BME280;4706;41.844;26.082;2023-03-16T03:55:44;99770.41;;;11.75;84.46
9335;BME280;4706;41.844;26.082;2023-03-16T03:58:10;99778.03;;;11.78;83.90
9335;BME280;4706;41.844;26.082;2023-03-16T04:00:37;99777.06;;;11.74;84.19
9335;BME280;4706;41.844;26.082;2023-03-16T04:03:03;99773.47;;;11.73;84.52
9335;BME280;4706;41.844;26.082;2023-03-16T04:05:29;99778.38;;;11.67;85.42
9335;BME280;4706;41.844;26.082;2023-03-16T04:07:55;99790.00;;;11.73;84.50
9335;BME280;4706;41.844;26.082;2023-03-16T04:10:23;99780.31;;;11.58;85.71
9335;BME280;4706;41.844;26.082;2023-03-16T04:12:49;99790.06;;;11.56;86.38
9335;BME280;4706;41.844;26.082;2023-03-16T04:15:15;99792.00;;;11.55;86.77
9335;BME280;4706;41.844;26.082;2023-03-16T04:17:40;99788.91;;;11.57;87.40
9335;BME280;4706;41.844;26.082;2023-03-16T04:20:06;99799.13;;;11.56;87.90
9335;BME280;4706;41.844;26.082;2023-03-16T04:22:38;99800.56;;;11.54;87.59
9335;BME280;4706;41.844;26.082;2023-03-16T04:25:04;99806.72;;;11.51;88.00
9335;BME280;4706;41.844;26.082;2023-03-16T04:27:29;99800.25;;;11.55;87.14
9335;BME280;4706;41.844;26.082;2023-03-16T04:30:04;99808.16;;;11.65;86.36
9335;BME280;4706;41.844;26.082;2023-03-16T04:32:33;99794.41;;;11.65;85.88
9335;BME280;4706;41.844;26.082;2023-03-16T04:34:59;99809.13;;;11.78;86.22
9335;BME280;4706;41.844;26.082;2023-03-16T04:37:24;99817.41;;;11.61;86.41
9335;BME280;4706;41.844;26.082;2023-03-16T04:39:50;99819.34;;;11.69;86.69
9335;BME280;4706;41.844;26.082;2023-03-16T04:42:15;99819.84;;;11.62;87.18
9335;BME280;4706;41.844;26.082;2023-03-16T04:44:41;99793.13;;;11.46;87.41
9335;BME280;4706;41.844;26.082;2023-03-16T04:47:11;99824.84;;;11.69;86.83
9335;BME280;4706;41.844;26.082;2023-03-16T04:49:38;99825.00;;;11.73;86.78
9335;BME280;4706;41.844;26.082;2023-03-16T04:52:03;99832.31;;;11.60;87.67
9335;BME280;4706;41.844;26.082;2023-03-16T04:54:30;99822.97;;;11.43;89.73
9335;BME280;4706;41.844;26.082;2023-03-16T04:56:56;99841.56;;;11.64;88.65
9335;BME280;4706;41.844;26.082;2023-03-16T04:59:21;99840.75;;;11.55;89.47
9335;BME280;4706;41.844;26.082;2023-03-16T05:01:48;99849.03;;;11.55;89.91
9335;BME280;4706;41.844;26.082;2023-03-16T05:04:14;99848.22;;;11.63;90.02
9335;BME280;4706;41.844;26.082;2023-03-16T05:06:40;99846.75;;;11.48;90.55
9335;BME280;4706;41.844;26.082;2023-03-16T05:09:05;99867.16;;;11.56;90.46
9335;BME280;4706;41.844;26.082;2023-03-16T05:11:36;99867.97;;;11.65;89.46
9335;BME280;4706;41.844;26.082;2023-03-16T05:14:02;99875.56;;;11.77;89.23
9335;BME280;4706;41.844;26.082;2023-03-16T05:16:29;99874.78;;;11.85;88.63
9335;BME280;4706;41.844;26.082;2023-03-16T05:18:58;99877.53;;;11.94;87.82
9335;BME280;4706;41.844;26.082;2023-03-16T05:21:24;99883.34;;;12.01;87.04
9335;BME280;4706;41.844;26.082;2023-03-16T05:23:49;99892.28;;;11.98;87.21
9335;BME280;4706;41.844;26.082;2023-03-16T05:26:16;99896.81;;;11.94;86.91
9335;BME280;4706;41.844;26.082;2023-03-16T05:28:43;99891.00;;;11.86;87.50
9335;BME280;4706;41.844;26.082;2023-03-16T05:31:09;99903.47;;;11.84;87.93
9335;BME280;4706;41.844;26.082;2023-03-16T05:33:35;99898.91;;;11.71;88.80
9335;BME280;4706;41.844;26.082;2023-03-16T05:36:01;99896.16;;;11.71;89.00
9335;BME280;4706;41.844;26.082;2023-03-16T05:38:27;99904.75;;;11.78;88.12
9335;BME280;4706;41.844;26.082;2023-03-16T05:40:53;99898.09;;;11.79;88.16
9335;BME280;4706;41.844;26.082;2023-03-16T05:43:20;99914.47;;;11.84;88.62
9335;BME280;4706;41.844;26.082;2023-03-16T05:45:46;99913.69;;;11.83;89.48
9335;BME280;4706;41.844;26.082;2023-03-16T05:48:12;99910.28;;;11.86;89.36
9335;BME280;4706;41.844;26.082;2023-03-16T05:50:40;99912.69;;;11.79;90.14
9335;BME280;4706;41.844;26.082;2023-03-16T05:53:06;99922.75;;;11.93;90.10
9335;BME280;4706;41.844;26.082;2023-03-16T05:55:31;99920.31;;;12.00;90.47
9335;BME280;4706;41.844;26.082;2023-03-16T05:57:57;99927.94;;;11.94;91.43
9335;BME280;4706;41.844;26.082;2023-03-16T06:00:23;99926.78;;;11.95;91.79
9335;BME280;4706;41.844;26.082;2023-03-16T06:02:50;99932.97;;;12.01;91.22
9335;BME280;4706;41.844;26.082;2023-03-16T06:05:17;99938.31;;;11.97;92.08
9335;BME280;4706;41.844;26.082;2023-03-16T06:07:43;99943.19;;;12.00;91.95
9335;BME280;4706;41.844;26.082;2023-03-16T06:10:10;99949.97;;;12.11;91.11
9335;BME280;4706;41.844;26.082;2023-03-16T06:12:36;99950.78;;;12.03;91.67
9335;BME280;4706;41.844;26.082;2023-03-16T06:15:02;99956.78;;;12.05;90.47
9335;BME280;4706;41.844;26.082;2023-03-16T06:17:28;99956.31;;;12.12;90.73
9335;BME280;4706;41.844;26.082;2023-03-16T06:19:54;99955.19;;;12.04;90.36
9335;BME280;4706;41.844;26.082;2023-03-16T06:22:19;99949.66;;;11.96;89.65
9335;BME280;4706;41.844;26.082;2023-03-16T06:24:45;99968.28;;;11.99;89.96
9335;BME280;4706;41.844;26.082;2023-03-16T06:27:10;99975.59;;;12.03;89.85
9335;BME280;4706;41.844;26.082;2023-03-16T06:29:36;99979.47;;;12.02;89.62
9335;BME280;4706;41.844;26.082;2023-03-16T06:32:01;99977.06;;;12.01;89.44
9335;BME280;4706;41.844;26.082;2023-03-16T06:34:27;99978.69;;;11.93;90.49
9335;BME280;4706;41.844;26.082;2023-03-16T06:36:52;99985.97;;;11.89;90.70
9335;BME280;4706;41.844;26.082;2023-03-16T06:39:18;99984.66;;;11.95;90.62
9335;BME280;4706;41.844;26.082;2023-03-16T06:41:43;99982.91;;;12.08;87.78
9335;BME280;4706;41.844;26.082;2023-03-16T06:44:09;99996.19;;;11.97;88.67
9335;BME280;4706;41.844;26.082;2023-03-16T06:46:36;99988.25;;;11.87;88.88
9335;BME280;4706;41.844;26.082;2023-03-16T06:49:02;100003.25;;;11.72;89.71
9335;BME280;4706;41.844;26.082;2023-03-16T06:51:29;100009.28;;;11.74;90.46
9335;BME280;4706;41.844;26.082;2023-03-16T06:53:55;100011.06;;;11.79;90.11
9335;BME280;4706;41.844;26.082;2023-03-16T06:56:21;100015.31;;;11.85;89.91
9335;BME280;4706;41.844;26.082;2023-03-16T06:58:47;100013.69;;;12.10;89.05
9335;BME280;4706;41.844;26.082;2023-03-16T07:01:12;100014.81;;;12.18;88.40
9335;BME280;4706;41.844;26.082;2023-03-16T07:03:38;100012.25;;;12.04;87.66
9335;BME280;4706;41.844;26.082;2023-03-16T07:06:03;100031.22;;;12.05;87.95
9335;BME280;4706;41.844;26.082;2023-03-16T07:08:30;100031.69;;;11.99;88.34
9335;BME280;4706;41.844;26.082;2023-03-16T07:10:56;100041.22;;;11.84;89.92
9335;BME280;4706;41.844;26.082;2023-03-16T07:13:21;100036.22;;;11.86;90.28
9335;BME280;4706;41.844;26.082;2023-03-16T07:15:51;100045.81;;;11.88;89.41
9335;BME280;4706;41.844;26.082;2023-03-16T07:18:17;100038.47;;;11.84;88.91
9335;BME280;4706;41.844;26.082;2023-03-16T07:20:43;100050.47;;;11.88;88.51
9335;BME280;4706;41.844;26.082;2023-03-16T07:23:08;100043.97;;;11.84;87.81
9335;BME280;4706;41.844;26.082;2023-03-16T07:25:35;100052.22;;;11.75;88.85
9335;BME280;4706;41.844;26.082;2023-03-16T07:28:01;100054.34;;;11.78;88.02
9335;BME280;4706;41.844;26.082;2023-03-16T07:30:28;100059.03;;;11.78;87.50
9335;BME280;4706;41.844;26.082;2023-03-16T07:32:53;100065.31;;;11.61;88.67
9335;BME280;4706;41.844;26.082;2023-03-16T07:35:19;100061.91;;;11.55;88.76
9335;BME280;4706;41.844;26.082;2023-03-16T07:37:46;100060.06;;;11.42;90.45
9335;BME280;4706;41.844;26.082;2023-03-16T07:40:12;100082.09;;;11.42;90.68
9335;BME280;4706;41.844;26.082;2023-03-16T07:42:39;100063.56;;;11.25;89.82
9335;BME280;4706;41.844;26.082;2023-03-16T07:45:06;100083.22;;;11.41;90.66
9335;BME280;4706;41.844;26.082;2023-03-16T07:47:32;100081.31;;;11.50;90.63
9335;BME280;4706;41.844;26.082;2023-03-16T07:49:58;100086.16;;;11.45;90.64
9335;BME280;4706;41.844;26.082;2023-03-16T07:52:24;100086.81;;;11.50;90.30
9335;BME280;4706;41.844;26.082;2023-03-16T07:54:50;100082.94;;;11.51;90.88
9335;BME280;4706;41.844;26.082;2023-03-16T07:57:16;100094.28;;;11.58;91.64
9335;BME280;4706;41.844;26.082;2023-03-16T07:59:41;100096.91;;;11.63;90.04
9335;BME280;4706;41.844;26.082;2023-03-16T08:02:15;100099.31;;;11.56;89.15
9335;BME280;4706;41.844;26.082;2023-03-16T08:04:42;100104.66;;;11.53;90.39
9335;BME280;4706;41.844;26.082;2023-03-16T08:07:10;100108.03;;;11.50;89.15
9335;BME280;4706;41.844;26.082;2023-03-16T08:09:36;100109.00;;;11.45;87.76
9335;BME280;4706;41.844;26.082;2023-03-16T08:12:02;100108.84;;;11.50;89.11
9335;BME280;4706;41.844;26.082;2023-03-16T08:14:29;100115.31;;;11.46;88.55
9335;BME280;4706;41.844;26.082;2023-03-16T08:16:55;100112.34;;;11.33;89.60
9335;BME280;4706;41.844;26.082;2023-03-16T08:19:20;100115.41;;;11.32;90.18
9335;BME280;4706;41.844;26.082;2023-03-16T08:21:46;100127.38;;;11.27;90.53
9335;BME280;4706;41.844;26.082;2023-03-16T08:24:12;100126.59;;;11.35;89.68
9335;BME280;4706;41.844;26.082;2023-03-16T08:26:37;100133.16;;;11.48;88.79
9335;BME280;4706;41.844;26.082;2023-03-16T08:29:03;100133.41;;;11.38;90.08
9335;BME280;4706;41.844;26.082;2023-03-16T08:31:29;100140.25;;;11.40;89.78
9335;BME280;4706;41.844;26.082;2023-03-16T08:33:55;100141.53;;;11.43;89.86
9335;BME280;4706;41.844;26.082;2023-03-16T08:36:21;100148.53;;;11.49;90.56
9335;BME280;4706;41.844;26.082;2023-03-16T08:38:47;100150.22;;;11.59;89.73
9335;BME280;4706;41.844;26.082;2023-03-16T08:41:12;100151.22;;;11.72;89.15
9335;BME280;4706;41.844;26.082;2023-03-16T08:43:41;100164.81;;;11.68;86.75
9335;BME280;4706;41.844;26.082;2023-03-16T08:46:07;100159.09;;;11.56;88.56
9335;BME280;4706;41.844;26.082;2023-03-16T08:48:33;100160.09;;;11.60;87.92
9335;BME280;4706;41.844;26.082;2023-03-16T08:51:03;100162.16;;;11.54;88.24
9335;BME280;4706;41.844;26.082;2023-03-16T08:53:30;100160.78;;;11.34;88.03
9335;BME280;4706;41.844;26.082;2023-03-16T08:56:04;100170.16;;;11.33;88.20
9335;BME280;4706;41.844;26.082;2023-03-16T08:58:34;100163.06;;;11.32;89.02
9335;BME280;4706;41.844;26.082;2023-03-16T09:01:00;100163.72;;;11.38;87.34
9335;BME280;4706;41.844;26.082;2023-03-16T09:03:26;100164.47;;;11.30;86.69
9335;BME280;4706;41.844;26.082;2023-03-16T09:05:52;100182.75;;;11.26;87.08
9335;BME280;4706;41.844;26.082;2023-03-16T09:08:19;100179.38;;;11.29;87.83
9335;BME280;4706;41.844;26.082;2023-03-16T09:10:44;100193.16;;;11.29;88.06
9335;BME280;4706;41.844;26.082;2023-03-16T09:13:11;100183.44;;;11.31;88.00
9335;BME280;4706;41.844;26.082;2023-03-16T09:15:37;100198.25;;;11.44;87.03
9335;BME280;4706;41.844;26.082;2023-03-16T09:18:03;100193.66;;;11.39;86.21
9335;BME280;4706;41.844;26.082;2023-03-16T09:20:30;100190.09;;;11.39;86.89
9335;BME280;4706;41.844;26.082;2023-03-16T09:22:55;100199.69;;;11.41;86.95
9335;BME280;4706;41.844;26.082;2023-03-16T09:25:22;100184.56;;;11.30;88.16
9335;BME280;4706;41.844;26.082;2023-03-16T09:27:50;100202.44;;;11.41;88.43
9335;BME280;4706;41.844;26.082;2023-03-16T09:30:15;100205.88;;;11.47;86.43
9335;BME280;4706;41.844;26.082;2023-03-16T09:32:41;100214.50;;;11.54;86.53
9335;BME280;4706;41.844;26.082;2023-03-16T09:35:07;100211.00;;;11.62;86.06
9335;BME280;4706;41.844;26.082;2023-03-16T09:37:33;100206.78;;;11.65;84.60
9335;BME280;4706;41.844;26.082;2023-03-16T09:39:58;100216.84;;;11.70;84.31
9335;BME280;4706;41.844;26.082;2023-03-16T09:45:05;100212.47;;;11.68;81.06
9335;BME280;4706;41.844;26.082;2023-03-16T09:47:33;100212.88;;;11.53;84.07
9335;BME280;4706;41.844;26.082;2023-03-16T09:50:23;100220.16;;;11.49;84.51
9335;BME280;4706;41.844;26.082;2023-03-16T09:53:07;100217.94;;;11.60;83.60
9335;BME280;4706;41.844;26.082;2023-03-16T09:55:38;100225.69;;;11.58;83.23
9335;BME280;4706;41.844;26.082;2023-03-16T09:58:12;100225.38;;;11.59;82.70
9335;BME280;4706;41.844;26.082;2023-03-16T10:06:06;100219.00;;;11.50;85.26
9335;BME280;4706;41.844;26.082;2023-03-16T10:08:43;100211.75;;;11.32;85.23
9335;BME280;4706;41.844;26.082;2023-03-16T10:11:11;100233.09;;;11.49;84.24
9335;BME280;4706;41.844;26.082;2023-03-16T10:16:32;100228.53;;;11.44;84.27
9335;BME280;4706;41.844;26.082;2023-03-16T10:21:38;100225.28;;;11.42;86.48
9335;BME280;4706;41.844;26.082;2023-03-16T10:24:14;100227.84;;;11.38;86.53
9335;BME280;4706;41.844;26.082;2023-03-16T10:26:41;100230.94;;;11.37;87.32
9335;BME280;4706;41.844;26.082;2023-03-16T10:29:11;100217.34;;;11.40;87.54
9335;BME280;4706;41.844;26.082;2023-03-16T10:31:40;100223.75;;;11.58;87.19
9335;BME280;4706;41.844;26.082;2023-03-16T10:34:06;100228.81;;;11.65;86.51
9335;BME280;4706;41.844;26.082;2023-03-16T10:36:37;100224.44;;;11.64;85.74
9335;BME280;4706;41.844;26.082;2023-03-16T10:39:11;100228.97;;;11.60;85.99
9335;BME280;4706;41.844;26.082;2023-03-16T10:41:41;100226.69;;;11.62;85.14
9335;BME280;4706;41.844;26.082;2023-03-16T10:44:15;100234.66;;;11.63;85.86
9335;BME280;4706;41.844;26.082;2023-03-16T10:46:48;100228.00;;;11.64;85.83
9335;BME280;4706;41.844;26.082;2023-03-16T10:49:28;100231.28;;;11.75;84.33
9335;BME280;4706;41.844;26.082;2023-03-16T10:51:57;100231.13;;;11.72;85.78
9335;BME280;4706;41.844;26.082;2023-03-16T10:54:32;100229.63;;;11.65;84.36
9335;BME280;4706;41.844;26.082;2023-03-16T10:56:58;100232.19;;;11.62;85.50
9335;BME280;4706;41.844;26.082;2023-03-16T10:59:33;100220.25;;;11.66;85.77
9335;BME280;4706;41.844;26.082;2023-03-16T11:02:02;100203.19;;;11.56;86.17
9335;BME280;4706;41.844;26.082;2023-03-16T11:04:38;100233.44;;;11.78;85.97
9335;BME280;4706;41.844;26.082;2023-03-16T11:07:06;100235.09;;;11.88;85.41
9335;BME280;4706;41.844;26.082;2023-03-16T11:09:35;100239.97;;;11.91;85.89
9335;BME280;4706;41.844;26.082;2023-03-16T11:14:44;100237.09;;;11.96;86.48
9335;BME280;4706;41.844;26.082;2023-03-16T11:17:14;100241.97;;;11.99;86.93
9335;BME280;4706;41.844;26.082;2023-03-16T11:20:00;100241.19;;;12.07;85.39
9335;BME280;4706;41.844;26.082;2023-03-16T11:22:30;100251.28;;;12.12;87.57
9335;BME280;4706;41.844;26.082;2023-03-16T11:27:52;100244.94;;;12.11;86.98
9335;BME280;4706;41.844;26.082;2023-03-16T11:30:29;100248.06;;;12.19;86.23
9335;BME280;4706;41.844;26.082;2023-03-16T11:32:59;100247.09;;;12.23;86.25
9335;BME280;4706;41.844;26.082;2023-03-16T11:38:12;100249.50;;;12.25;86.17
9335;BME280;4706;41.844;26.082;2023-03-16T11:40:46;100243.34;;;12.19;86.13
9335;BME280;4706;41.844;26.082;2023-03-16T11:46:19;100249.84;;;12.23;85.21
9335;BME280;4706;41.844;26.082;2023-03-16T11:52:57;100246.47;;;12.35;85.14
9335;BME280;4706;41.844;26.082;2023-03-16T11:55:55;100252.00;;;12.35;84.64
9335;BME280;4706;41.844;26.082;2023-03-16T12:14:19;100262.66;;;12.28;81.33
9335;BME280;4706;41.844;26.082;2023-03-16T12:19:26;100260.72;;;12.28;81.88
9335;BME280;4706;41.844;26.082;2023-03-16T12:22:06;100250.84;;;12.27;81.72
9335;BME280;4706;41.844;26.082;2023-03-16T12:24:42;100258.78;;;12.29;81.91
9335;BME280;4706;41.844;26.082;2023-03-16T12:27:31;100266.59;;;12.35;82.47
9335;BME280;4706;41.844;26.082;2023-03-16T12:30:02;100267.75;;;12.43;82.33
9335;BME280;4706;41.844;26.082;2023-03-16T12:35:48;100280.91;;;12.46;81.46
9335;BME280;4706;41.844;26.082;2023-03-16T12:49:08;100287.56;;;12.54;83.06
9335;BME280;4706;41.844;26.082;2023-03-16T12:51:41;100288.72;;;12.53;83.55
9335;BME280;4706;41.844;26.082;2023-03-16T12:54:47;100289.34;;;12.58;83.53
9335;BME280;4706;41.844;26.082;2023-03-16T12:57:15;100285.31;;;12.64;82.61
9335;BME280;4706;41.844;26.082;2023-03-16T12:59:44;100290.16;;;12.59;82.40
9335;BME280;4706;41.844;26.082;2023-03-16T13:02:19;100292.91;;;12.59;82.00
9335;BME280;4706;41.844;26.082;2023-03-16T13:04:48;100298.13;;;12.60;83.16
9335;BME280;4706;41.844;26.082;2023-03-16T13:07:23;100294.06;;;12.58;82.99
9335;BME280;4706;41.844;26.082;2023-03-16T13:10:11;100300.56;;;12.53;81.92
9335;BME280;4706;41.844;26.082;2023-03-16T13:12:39;100299.56;;;12.49;82.85
9335;BME280;4706;41.844;26.082;2023-03-16T13:17:45;100304.75;;;12.51;81.45
9335;BME280;4706;41.844;26.082;2023-03-16T13:22:43;100311.22;;;12.37;80.08
9335;BME280;4706;41.844;26.082;2023-03-16T13:25:16;100315.06;;;12.28;81.66
9335;BME280;4706;41.844;26.082;2023-03-16T13:27:47;100314.25;;;12.27;82.17
9335;BME280;4706;41.844;26.082;2023-03-16T13:30:20;100311.63;;;12.22;80.72
9335;BME280;4706;41.844;26.082;2023-03-16T13:32:47;100321.47;;;12.14;82.00
9335;BME280;4706;41.844;26.082;2023-03-16T13:35:17;100290.22;;;11.88;82.33
9335;BME280;4706;41.844;26.082;2023-03-16T13:37:43;100319.31;;;12.03;83.02
9335;BME280;4706;41.844;26.082;2023-03-16T13:40:25;100324.81;;;12.03;83.21
9335;BME280;4706;41.844;26.082;2023-03-16T13:42:53;100332.66;;;12.09;82.04
9335;BME280;4706;41.844;26.082;2023-03-16T13:45:30;100318.06;;;12.09;80.88
9335;BME280;4706;41.844;26.082;2023-03-16T13:47:58;100327.28;;;12.04;79.76
9335;BME280;4706;41.844;26.082;2023-03-16T13:50:24;100329.41;;;12.07;79.22
9335;BME280;4706;41.844;26.082;2023-03-16T13:52:58;100333.72;;;12.00;77.99
9335;BME280;4706;41.844;26.082;2023-03-16T13:55:35;100331.25;;;11.89;78.78
9335;BME280;4706;41.844;26.082;2023-03-16T13:58:02;100341.66;;;11.93;79.78
9335;BME280;4706;41.844;26.082;2023-03-16T14:00:35;100346.97;;;11.89;79.52
9335;BME280;4706;41.844;26.082;2023-03-16T14:03:13;100355.06;;;11.85;80.64
9335;BME280;4706;41.844;26.082;2023-03-16T14:05:40;100346.88;;;11.80;80.04
9335;BME280;4706;41.844;26.082;2023-03-16T14:10:41;100357.00;;;11.62;82.78
9335;BME280;4706;41.844;26.082;2023-03-16T14:13:08;100376.38;;;11.80;81.23
9335;BME280;4706;41.844;26.082;2023-03-16T14:15:36;100360.06;;;11.83;79.71
9335;BME280;4706;41.844;26.082;2023-03-16T14:18:19;100374.13;;;11.82;79.75
9335;BME280;4706;41.844;26.082;2023-03-16T14:20:53;100380.06;;;11.89;78.67
9335;BME280;4706;41.844;26.082;2023-03-16T14:23:30;100376.78;;;11.87;79.30
9335;BME280;4706;41.844;26.082;2023-03-16T14:25:57;100384.75;;;11.88;79.63
9335;BME280;4706;41.844;26.082;2023-03-16T14:28:31;100386.59;;;11.79;80.01